sensor_id;sensor_type;location;lat;lon;timestamp;pressure;altitude;pressure_sealevel;temperature;humidity
63347;BME280;49472;49.880;8.650;2023-02-19T00:01:08;100556.75;;;13.69;65.95
63347;BME280;49472;49.880;8.650;2023-02-19T00:03:35;100551.63;;;13.46;66.69
63347;BME280;49472;49.880;8.650;2023-02-19T00:06:01;100565.88;;;13.39;67.21
63347;BME280;49472;49.880;8.650;2023-02-19T00:08:29;100546.13;;;13.40;66.78
63347;BME280;49472;49.880;8.650;2023-02-19T00:11:02;100546.22;;;13.16;67.53
63347;BME280;49472;49.880;8.650;2023-02-19T00:13:28;100549.81;;;13.24;67.51
63347;BME280;49472;49.880;8.650;2023-02-19T00:15:53;100549.56;;;13.05;68.31
63347;BME280;49472;49.880;8.650;2023-02-19T00:18:20;100533.25;;;13.17;68.08
63347;BME280;49472;49.880;8.650;2023-02-19T00:20:45;100550.75;;;13.12;68.03
63347;BME280;49472;49.880;8.650;2023-02-19T00:23:10;100535.47;;;13.11;68.21
63347;BME280;49472;49.880;8.650;2023-02-19T00:25:36;100538.41;;;13.06;68.36
63347;BME280;49472;49.880;8.650;2023-02-19T00:28:02;100530.47;;;13.20;68.03
63347;BME280;49472;49.880;8.650;2023-02-19T00:30:27;100521.13;;;13.08;68.42
63347;BME280;49472;49.880;8.650;2023-02-19T00:32:53;100524.75;;;13.06;68.83
63347;BME280;49472;49.880;8.650;2023-02-19T00:35:19;100520.56;;;13.27;68.54
63347;BME280;49472;49.880;8.650;2023-02-19T00:37:44;100522.53;;;13.01;68.87
63347;BME280;49472;49.880;8.650;2023-02-19T00:40:10;100549.19;;;12.87;69.13
63347;BME280;49472;49.880;8.650;2023-02-19T00:42:35;100530.31;;;12.99;69.00
63347;BME280;49472;49.880;8.650;2023-02-19T00:45:01;100544.34;;;12.95;69.08
63347;BME280;49472;49.880;8.650;2023-02-19T00:47:26;100524.84;;;13.04;68.92
63347;BME280;49472;49.880;8.650;2023-02-19T00:49:51;100527.47;;;13.27;68.71
63347;BME280;49472;49.880;8.650;2023-02-19T00:52:17;100535.53;;;13.33;68.12
63347;BME280;49472;49.880;8.650;2023-02-19T00:54:42;100533.31;;;13.29;68.29
63347;BME280;49472;49.880;8.650;2023-02-19T00:57:07;100534.78;;;13.09;68.14
63347;BME280;49472;49.880;8.650;2023-02-19T00:59:33;100532.91;;;13.11;68.77
63347;BME280;49472;49.880;8.650;2023-02-19T01:01:58;100536.88;;;13.26;68.11
63347;BME280;49472;49.880;8.650;2023-02-19T01:04:23;100535.22;;;13.25;68.47
63347;BME280;49472;49.880;8.650;2023-02-19T01:06:49;100544.44;;;13.05;68.91
63347;BME280;49472;49.880;8.650;2023-02-19T01:09:14;100508.50;;;13.05;69.11
63347;BME280;49472;49.880;8.650;2023-02-19T01:11:40;100522.06;;;12.96;69.53
63347;BME280;49472;49.880;8.650;2023-02-19T01:14:06;100512.34;;;12.99;69.58
63347;BME280;49472;49.880;8.650;2023-02-19T01:16:31;100527.06;;;13.09;69.26
63347;BME280;49472;49.880;8.650;2023-02-19T01:18:57;100516.13;;;13.18;69.00
63347;BME280;49472;49.880;8.650;2023-02-19T01:21:26;100514.13;;;13.21;69.17
63347;BME280;49472;49.880;8.650;2023-02-19T01:23:52;100516.78;;;13.20;69.26
63347;BME280;49472;49.880;8.650;2023-02-19T01:26:21;100526.16;;;13.21;68.73
63347;BME280;49472;49.880;8.650;2023-02-19T01:28:47;100517.84;;;13.06;69.74
63347;BME280;49472;49.880;8.650;2023-02-19T01:31:15;100520.75;;;13.01;69.82
63347;BME280;49472;49.880;8.650;2023-02-19T01:33:56;100538.13;;;12.87;70.36
63347;BME280;49472;49.880;8.650;2023-02-19T01:36:22;100513.16;;;12.77;70.56
63347;BME280;49472;49.880;8.650;2023-02-19T01:38:48;100505.22;;;12.92;70.22
63347;BME280;49472;49.880;8.650;2023-02-19T01:41:22;100507.09;;;12.90;70.35
63347;BME280;49472;49.880;8.650;2023-02-19T01:46:51;100507.31;;;12.75;71.22
63347;BME280;49472;49.880;8.650;2023-02-19T01:49:30;100505.56;;;12.87;70.91
63347;BME280;49472;49.880;8.650;2023-02-19T01:52:02;100493.56;;;12.76;71.37
63347;BME280;49472;49.880;8.650;2023-02-19T01:54:32;100484.47;;;12.95;70.90
63347;BME280;49472;49.880;8.650;2023-02-19T01:57:03;100492.16;;;12.72;71.99
63347;BME280;49472;49.880;8.650;2023-02-19T01:59:31;100504.75;;;12.75;71.68
63347;BME280;49472;49.880;8.650;2023-02-19T02:01:57;100499.97;;;12.71;71.91
63347;BME280;49472;49.880;8.650;2023-02-19T02:04:25;100487.16;;;13.04;71.62
63347;BME280;49472;49.880;8.650;2023-02-19T02:06:53;100474.81;;;12.98;71.21
63347;BME280;49472;49.880;8.650;2023-02-19T02:09:24;100493.22;;;12.81;71.85
63347;BME280;49472;49.880;8.650;2023-02-19T02:12:09;100489.03;;;12.80;71.71
63347;BME280;49472;49.880;8.650;2023-02-19T02:14:37;100478.53;;;12.83;72.27
63347;BME280;49472;49.880;8.650;2023-02-19T02:17:23;100486.66;;;12.66;72.69
63347;BME280;49472;49.880;8.650;2023-02-19T02:22:46;100468.13;;;12.62;72.97
63347;BME280;49472;49.880;8.650;2023-02-19T02:33:11;100433.59;;;12.66;72.92
63347;BME280;49472;49.880;8.650;2023-02-19T02:36:06;100439.69;;;12.65;73.20
63347;BME280;49472;49.880;8.650;2023-02-19T02:38:38;100431.84;;;12.55;74.04
63347;BME280;49472;49.880;8.650;2023-02-19T02:41:05;100429.06;;;12.58;73.83
63347;BME280;49472;49.880;8.650;2023-02-19T02:43:31;100427.06;;;12.51;73.84
63347;BME280;49472;49.880;8.650;2023-02-19T02:45:57;100429.63;;;12.85;72.62
63347;BME280;49472;49.880;8.650;2023-02-19T02:51:15;100468.22;;;12.60;73.57
63347;BME280;49472;49.880;8.650;2023-02-19T02:56:28;100443.97;;;12.42;74.37
63347;BME280;49472;49.880;8.650;2023-02-19T02:58:55;100441.06;;;12.47;74.53
63347;BME280;49472;49.880;8.650;2023-02-19T03:01:26;100425.44;;;12.50;74.50
63347;BME280;49472;49.880;8.650;2023-02-19T03:04:23;100458.63;;;12.40;74.87
63347;BME280;49472;49.880;8.650;2023-02-19T03:06:51;100419.47;;;12.38;74.78
63347;BME280;49472;49.880;8.650;2023-02-19T03:09:30;100403.75;;;12.43;75.13
63347;BME280;49472;49.880;8.650;2023-02-19T03:11:59;100394.19;;;12.45;74.45
63347;BME280;49472;49.880;8.650;2023-02-19T03:14:52;100419.81;;;12.33;75.40
63347;BME280;49472;49.880;8.650;2023-02-19T03:18:06;100413.06;;;12.32;75.84
63347;BME280;49472;49.880;8.650;2023-02-19T03:20:54;100413.19;;;12.42;75.54
63347;BME280;49472;49.880;8.650;2023-02-19T03:23:22;100428.75;;;12.28;76.04
63347;BME280;49472;49.880;8.650;2023-02-19T03:26:11;100456.00;;;12.18;76.34
63347;BME280;49472;49.880;8.650;2023-02-19T03:28:39;100410.03;;;12.38;75.96
63347;BME280;49472;49.880;8.650;2023-02-19T03:31:29;100419.47;;;12.27;76.13
63347;BME280;49472;49.880;8.650;2023-02-19T03:33:59;100412.38;;;12.42;75.73
63347;BME280;49472;49.880;8.650;2023-02-19T03:36:34;100426.59;;;12.46;75.31
63347;BME280;49472;49.880;8.650;2023-02-19T03:39:05;100421.34;;;12.58;75.15
63347;BME280;49472;49.880;8.650;2023-02-19T03:41:46;100432.31;;;12.49;74.74
63347;BME280;49472;49.880;8.650;2023-02-19T03:49:48;100429.50;;;12.41;74.99
63347;BME280;49472;49.880;8.650;2023-02-19T03:55:15;100428.00;;;12.61;74.60
63347;BME280;49472;49.880;8.650;2023-02-19T04:00:21;100451.00;;;12.63;73.91
63347;BME280;49472;49.880;8.650;2023-02-19T04:03:21;100444.44;;;12.58;74.45
63347;BME280;49472;49.880;8.650;2023-02-19T04:05:54;100439.44;;;12.79;73.66
63347;BME280;49472;49.880;8.650;2023-02-19T04:08:23;100446.28;;;12.56;74.52
63347;BME280;49472;49.880;8.650;2023-02-19T04:10:50;100448.38;;;12.51;74.66
63347;BME280;49472;49.880;8.650;2023-02-19T04:13:24;100443.88;;;12.66;74.94
63347;BME280;49472;49.880;8.650;2023-02-19T04:15:53;100442.47;;;12.62;74.63
63347;BME280;49472;49.880;8.650;2023-02-19T04:18:24;100434.41;;;12.67;74.08
63347;BME280;49472;49.880;8.650;2023-02-19T04:20:51;100441.31;;;12.77;74.20
63347;BME280;49472;49.880;8.650;2023-02-19T04:23:20;100436.66;;;12.82;73.71
63347;BME280;49472;49.880;8.650;2023-02-19T04:25:51;100433.75;;;12.65;73.91
63347;BME280;49472;49.880;8.650;2023-02-19T04:28:18;100431.63;;;12.58;74.48
63347;BME280;49472;49.880;8.650;2023-02-19T04:30:44;100436.16;;;12.55;74.15
63347;BME280;49472;49.880;8.650;2023-02-19T04:33:09;100424.84;;;12.46;74.72
63347;BME280;49472;49.880;8.650;2023-02-19T04:35:35;100436.13;;;12.44;74.35
63347;BME280;49472;49.880;8.650;2023-02-19T04:38:00;100429.75;;;12.49;75.00
63347;BME280;49472;49.880;8.650;2023-02-19T04:40:25;100439.41;;;12.46;74.81
63347;BME280;49472;49.880;8.650;2023-02-19T04:42:51;100442.09;;;12.67;73.97
63347;BME280;49472;49.880;8.650;2023-02-19T04:45:16;100434.06;;;12.71;73.61
63347;BME280;49472;49.880;8.650;2023-02-19T04:47:41;100449.81;;;12.67;73.61
63347;BME280;49472;49.880;8.650;2023-02-19T04:50:07;100438.03;;;12.64;74.27
63347;BME280;49472;49.880;8.650;2023-02-19T04:52:32;100462.75;;;12.65;73.63
63347;BME280;49472;49.880;8.650;2023-02-19T04:54:58;100435.34;;;12.66;73.49
63347;BME280;49472;49.880;8.650;2023-02-19T04:57:23;100447.25;;;12.67;73.42
63347;BME280;49472;49.880;8.650;2023-02-19T04:59:48;100456.56;;;12.56;74.01
63347;BME280;49472;49.880;8.650;2023-02-19T05:02:14;100454.22;;;12.53;74.46
63347;BME280;49472;49.880;8.650;2023-02-19T05:04:39;100468.47;;;12.57;74.08
63347;BME280;49472;49.880;8.650;2023-02-19T05:07:05;100459.25;;;12.55;74.17
63347;BME280;49472;49.880;8.650;2023-02-19T05:09:30;100472.88;;;12.55;76.72
63347;BME280;49472;49.880;8.650;2023-02-19T05:11:56;100454.72;;;13.81;73.55
63347;BME280;49472;49.880;8.650;2023-02-19T05:14:21;100446.81;;;14.98;69.58
63347;BME280;49472;49.880;8.650;2023-02-19T05:16:46;100434.28;;;14.32;69.67
63347;BME280;49472;49.880;8.650;2023-02-19T05:19:12;100467.25;;;13.74;72.35
63347;BME280;49472;49.880;8.650;2023-02-19T05:21:37;100448.06;;;13.46;75.69
63347;BME280;49472;49.880;8.650;2023-02-19T05:24:06;100461.19;;;13.96;73.37
63347;BME280;49472;49.880;8.650;2023-02-19T05:26:31;100474.59;;;14.32;71.20
63347;BME280;49472;49.880;8.650;2023-02-19T05:28:57;100478.09;;;14.52;70.94
63347;BME280;49472;49.880;8.650;2023-02-19T05:31:23;100488.78;;;14.26;70.04
63347;BME280;49472;49.880;8.650;2023-02-19T05:33:48;100484.50;;;14.37;69.95
63347;BME280;49472;49.880;8.650;2023-02-19T05:36:18;100491.31;;;14.38;69.72
63347;BME280;49472;49.880;8.650;2023-02-19T05:38:43;100497.06;;;14.72;68.99
63347;BME280;49472;49.880;8.650;2023-02-19T05:41:12;100507.03;;;14.44;69.47
63347;BME280;49472;49.880;8.650;2023-02-19T05:43:38;100517.94;;;14.37;69.07
63347;BME280;49472;49.880;8.650;2023-02-19T05:46:05;100514.38;;;14.49;69.32
63347;BME280;49472;49.880;8.650;2023-02-19T05:48:31;100498.06;;;14.39;69.16
63347;BME280;49472;49.880;8.650;2023-02-19T05:51:04;100497.00;;;14.20;69.68
63347;BME280;49472;49.880;8.650;2023-02-19T05:53:30;100506.03;;;14.15;70.38
63347;BME280;49472;49.880;8.650;2023-02-19T05:55:56;100508.72;;;14.34;69.98
63347;BME280;49472;49.880;8.650;2023-02-19T05:58:21;100512.50;;;14.51;68.52
63347;BME280;49472;49.880;8.650;2023-02-19T06:00:46;100529.38;;;14.44;68.92
63347;BME280;49472;49.880;8.650;2023-02-19T06:03:11;100522.16;;;14.38;68.97
63347;BME280;49472;49.880;8.650;2023-02-19T06:05:37;100524.16;;;14.66;68.03
63347;BME280;49472;49.880;8.650;2023-02-19T06:08:02;100541.63;;;14.51;68.34
63347;BME280;49472;49.880;8.650;2023-02-19T06:10:28;100535.53;;;14.52;67.89
63347;BME280;49472;49.880;8.650;2023-02-19T06:12:53;100535.88;;;14.59;67.12
63347;BME280;49472;49.880;8.650;2023-02-19T06:15:19;100542.94;;;14.46;67.88
63347;BME280;49472;49.880;8.650;2023-02-19T06:17:45;100544.41;;;14.81;66.73
63347;BME280;49472;49.880;8.650;2023-02-19T06:20:11;100550.38;;;14.60;67.14
63347;BME280;49472;49.880;8.650;2023-02-19T06:22:36;100561.72;;;14.58;67.07
63347;BME280;49472;49.880;8.650;2023-02-19T06:25:02;100554.09;;;14.88;66.56
63347;BME280;49472;49.880;8.650;2023-02-19T06:27:27;100557.03;;;15.45;64.73
63347;BME280;49472;49.880;8.650;2023-02-19T06:29:52;100565.19;;;14.68;66.82
63347;BME280;49472;49.880;8.650;2023-02-19T06:32:18;100567.81;;;14.77;66.79
63347;BME280;49472;49.880;8.650;2023-02-19T06:34:43;100563.00;;;14.52;67.87
63347;BME280;49472;49.880;8.650;2023-02-19T06:37:08;100575.41;;;14.26;68.42
63347;BME280;49472;49.880;8.650;2023-02-19T06:39:34;100570.88;;;14.18;68.84
63347;BME280;49472;49.880;8.650;2023-02-19T06:42:00;100558.19;;;14.38;68.51
63347;BME280;49472;49.880;8.650;2023-02-19T06:44:25;100563.59;;;14.23;68.80
63347;BME280;49472;49.880;8.650;2023-02-19T06:46:53;100570.91;;;14.71;68.00
63347;BME280;49472;49.880;8.650;2023-02-19T06:49:19;100572.84;;;14.47;67.98
63347;BME280;49472;49.880;8.650;2023-02-19T06:51:44;100577.59;;;14.63;66.99
63347;BME280;49472;49.880;8.650;2023-02-19T06:54:09;100573.84;;;14.88;67.08
63347;BME280;49472;49.880;8.650;2023-02-19T06:56:37;100598.13;;;14.42;67.98
63347;BME280;49472;49.880;8.650;2023-02-19T06:59:06;100590.53;;;14.72;67.39
63347;BME280;49472;49.880;8.650;2023-02-19T07:01:32;100593.44;;;14.79;67.02
63347;BME280;49472;49.880;8.650;2023-02-19T07:03:58;100595.88;;;14.60;67.51
63347;BME280;49472;49.880;8.650;2023-02-19T07:06:25;100595.22;;;14.79;67.29
63347;BME280;49472;49.880;8.650;2023-02-19T07:08:52;100597.28;;;14.64;67.30
63347;BME280;49472;49.880;8.650;2023-02-19T07:11:18;100601.41;;;14.97;66.38
63347;BME280;49472;49.880;8.650;2023-02-19T07:13:44;100596.66;;;14.92;66.18
63347;BME280;49472;49.880;8.650;2023-02-19T07:16:11;100605.69;;;14.87;65.99
63347;BME280;49472;49.880;8.650;2023-02-19T07:18:38;100605.88;;;14.95;66.09
63347;BME280;49472;49.880;8.650;2023-02-19T07:21:12;100601.66;;;15.15;65.68
63347;BME280;49472;49.880;8.650;2023-02-19T07:23:39;100611.72;;;14.97;65.71
63347;BME280;49472;49.880;8.650;2023-02-19T07:26:08;100613.78;;;15.03;65.18
63347;BME280;49472;49.880;8.650;2023-02-19T07:28:33;100610.13;;;15.57;64.55
63347;BME280;49472;49.880;8.650;2023-02-19T07:31:00;100611.84;;;15.47;64.22
63347;BME280;49472;49.880;8.650;2023-02-19T07:33:26;100617.00;;;15.47;64.07
63347;BME280;49472;49.880;8.650;2023-02-19T07:35:52;100628.41;;;15.24;63.99
63347;BME280;49472;49.880;8.650;2023-02-19T07:38:19;100621.44;;;15.14;64.37
63347;BME280;49472;49.880;8.650;2023-02-19T07:43:20;100642.75;;;15.16;64.66
63347;BME280;49472;49.880;8.650;2023-02-19T07:45:46;100636.84;;;15.05;65.08
63347;BME280;49472;49.880;8.650;2023-02-19T07:48:12;100638.47;;;15.27;64.45
63347;BME280;49472;49.880;8.650;2023-02-19T07:50:37;100649.97;;;15.23;64.51
63347;BME280;49472;49.880;8.650;2023-02-19T07:53:03;100653.59;;;15.20;64.97
63347;BME280;49472;49.880;8.650;2023-02-19T07:55:30;100658.88;;;15.39;64.25
63347;BME280;49472;49.880;8.650;2023-02-19T07:57:57;100662.91;;;15.11;65.03
63347;BME280;49472;49.880;8.650;2023-02-19T08:00:23;100660.94;;;15.46;64.39
63347;BME280;49472;49.880;8.650;2023-02-19T08:02:50;100664.28;;;15.67;63.69
63347;BME280;49472;49.880;8.650;2023-02-19T08:05:29;100673.94;;;15.44;64.14
63347;BME280;49472;49.880;8.650;2023-02-19T08:07:56;100679.63;;;15.17;64.93
63347;BME280;49472;49.880;8.650;2023-02-19T08:10:22;100671.69;;;15.30;64.68
63347;BME280;49472;49.880;8.650;2023-02-19T08:13:08;100675.19;;;15.50;64.47
63347;BME280;49472;49.880;8.650;2023-02-19T08:15:45;100670.38;;;15.35;64.46
63347;BME280;49472;49.880;8.650;2023-02-19T08:18:12;100661.47;;;15.49;63.96
63347;BME280;49472;49.880;8.650;2023-02-19T08:20:38;100682.81;;;15.30;64.00
63347;BME280;49472;49.880;8.650;2023-02-19T08:23:03;100679.28;;;15.52;63.75
63347;BME280;49472;49.880;8.650;2023-02-19T08:25:29;100674.03;;;15.33;64.18
63347;BME280;49472;49.880;8.650;2023-02-19T08:27:54;100687.81;;;15.74;62.89
63347;BME280;49472;49.880;8.650;2023-02-19T08:30:21;100690.56;;;16.32;62.39
63347;BME280;49472;49.880;8.650;2023-02-19T08:32:46;100687.31;;;16.40;61.06
63347;BME280;49472;49.880;8.650;2023-02-19T08:35:11;100698.09;;;16.55;60.28
63347;BME280;49472;49.880;8.650;2023-02-19T08:37:37;100698.75;;;16.76;60.36
63347;BME280;49472;49.880;8.650;2023-02-19T08:40:02;100703.28;;;16.74;60.11
63347;BME280;49472;49.880;8.650;2023-02-19T08:42:28;100706.69;;;16.94;59.70
63347;BME280;49472;49.880;8.650;2023-02-19T08:44:53;100717.56;;;16.88;59.62
63347;BME280;49472;49.880;8.650;2023-02-19T08:47:19;100719.88;;;17.01;59.57
63347;BME280;49472;49.880;8.650;2023-02-19T08:49:44;100735.53;;;16.30;61.03
63347;BME280;49472;49.880;8.650;2023-02-19T08:52:09;100748.13;;;15.82;63.20
63347;BME280;49472;49.880;8.650;2023-02-19T08:54:35;100739.53;;;16.13;63.00
63347;BME280;49472;49.880;8.650;2023-02-19T08:57:00;100741.72;;;16.77;62.04
63347;BME280;49472;49.880;8.650;2023-02-19T08:59:27;100742.91;;;16.44;62.43
63347;BME280;49472;49.880;8.650;2023-02-19T09:01:53;100745.25;;;16.66;61.59
63347;BME280;49472;49.880;8.650;2023-02-19T09:04:18;100751.34;;;16.56;61.73
63347;BME280;49472;49.880;8.650;2023-02-19T09:06:44;100746.78;;;16.79;60.87
63347;BME280;49472;49.880;8.650;2023-02-19T09:09:12;100745.44;;;17.04;60.10
63347;BME280;49472;49.880;8.650;2023-02-19T09:11:38;100750.56;;;16.75;60.46
63347;BME280;49472;49.880;8.650;2023-02-19T09:14:03;100747.81;;;16.57;60.33
63347;BME280;49472;49.880;8.650;2023-02-19T09:16:34;100757.22;;;16.77;59.72
63347;BME280;49472;49.880;8.650;2023-02-19T09:18:59;100762.03;;;16.82;59.60
63347;BME280;49472;49.880;8.650;2023-02-19T09:21:25;100759.31;;;16.93;59.13
63347;BME280;49472;49.880;8.650;2023-02-19T09:23:50;100762.84;;;17.02;59.14
63347;BME280;49472;49.880;8.650;2023-02-19T09:26:15;100759.56;;;17.09;58.74
63347;BME280;49472;49.880;8.650;2023-02-19T09:28:41;100756.28;;;17.27;58.52
63347;BME280;49472;49.880;8.650;2023-02-19T09:31:09;100760.53;;;17.08;58.42
63347;BME280;49472;49.880;8.650;2023-02-19T09:33:35;100764.03;;;16.78;58.78
63347;BME280;49472;49.880;8.650;2023-02-19T09:36:01;100786.44;;;16.27;58.88
63347;BME280;49472;49.880;8.650;2023-02-19T09:38:27;100763.81;;;16.50;58.92
63347;BME280;49472;49.880;8.650;2023-02-19T09:40:56;100770.03;;;16.98;58.07
63347;BME280;49472;49.880;8.650;2023-02-19T09:43:23;100770.06;;;17.18;56.93
63347;BME280;49472;49.880;8.650;2023-02-19T09:45:59;100764.03;;;17.36;57.15
63347;BME280;49472;49.880;8.650;2023-02-19T09:48:26;100769.09;;;17.38;57.03
63347;BME280;49472;49.880;8.650;2023-02-19T09:50:53;100765.94;;;17.34;57.02
63347;BME280;49472;49.880;8.650;2023-02-19T09:53:24;100765.41;;;17.41;56.12
63347;BME280;49472;49.880;8.650;2023-02-19T09:55:52;100765.34;;;17.60;55.92
63347;BME280;49472;49.880;8.650;2023-02-19T09:58:31;100777.38;;;17.42;55.66
63347;BME280;49472;49.880;8.650;2023-02-19T10:01:00;100772.06;;;17.43;55.70
63347;BME280;49472;49.880;8.650;2023-02-19T10:03:31;100767.25;;;16.70;56.38
63347;BME280;49472;49.880;8.650;2023-02-19T10:06:26;100764.03;;;17.36;55.89
63347;BME280;49472;49.880;8.650;2023-02-19T10:09:10;100770.72;;;17.20;56.35
63347;BME280;49472;49.880;8.650;2023-02-19T10:11:39;100776.16;;;17.36;55.64
63347;BME280;49472;49.880;8.650;2023-02-19T10:14:12;100768.25;;;17.38;55.31
63347;BME280;49472;49.880;8.650;2023-02-19T10:16:42;100782.00;;;17.09;55.87
63347;BME280;49472;49.880;8.650;2023-02-19T10:19:12;100780.13;;;17.21;55.65
63347;BME280;49472;49.880;8.650;2023-02-19T10:21:38;100793.44;;;17.16;55.86
63347;BME280;49472;49.880;8.650;2023-02-19T10:24:05;100787.72;;;17.32;55.69
63347;BME280;49472;49.880;8.650;2023-02-19T10:26:31;100782.13;;;17.36;54.88
63347;BME280;49472;49.880;8.650;2023-02-19T10:29:00;100781.69;;;17.80;54.08
63347;BME280;49472;49.880;8.650;2023-02-19T10:31:25;100797.22;;;17.61;54.09
63347;BME280;49472;49.880;8.650;2023-02-19T10:33:56;100782.94;;;17.27;54.38
63347;BME280;49472;49.880;8.650;2023-02-19T10:36:33;100793.69;;;17.81;54.29
63347;BME280;49472;49.880;8.650;2023-02-19T10:39:01;100806.88;;;17.68;54.30
63347;BME280;49472;49.880;8.650;2023-02-19T10:41:27;100803.06;;;17.63;53.49
63347;BME280;49472;49.880;8.650;2023-02-19T10:44:25;100807.28;;;17.54;53.91
63347;BME280;49472;49.880;8.650;2023-02-19T10:46:51;100812.75;;;17.31;53.56
63347;BME280;49472;49.880;8.650;2023-02-19T10:51:51;100834.41;;;17.30;54.11
63347;BME280;49472;49.880;8.650;2023-02-19T10:54:32;100818.19;;;17.48;54.72
63347;BME280;49472;49.880;8.650;2023-02-19T10:57:23;100827.66;;;17.96;54.13
63347;BME280;49472;49.880;8.650;2023-02-19T11:00:05;100832.88;;;17.08;54.81
63347;BME280;49472;49.880;8.650;2023-02-19T11:02:43;100840.66;;;16.68;55.70
63347;BME280;49472;49.880;8.650;2023-02-19T11:07:37;100848.75;;;16.54;56.70
63347;BME280;49472;49.880;8.650;2023-02-19T11:10:04;100862.13;;;16.68;56.91
63347;BME280;49472;49.880;8.650;2023-02-19T11:12:32;100843.59;;;16.84;57.06
63347;BME280;49472;49.880;8.650;2023-02-19T11:15:31;100846.22;;;17.52;55.94
63347;BME280;49472;49.880;8.650;2023-02-19T11:18:06;100856.03;;;17.49;55.11
63347;BME280;49472;49.880;8.650;2023-02-19T11:20:34;100860.88;;;18.00;55.02
63347;BME280;49472;49.880;8.650;2023-02-19T11:23:12;100863.38;;;17.63;54.11
63347;BME280;49472;49.880;8.650;2023-02-19T11:25:44;100835.47;;;18.23;53.27
63347;BME280;49472;49.880;8.650;2023-02-19T11:28:32;100845.16;;;18.86;52.29
63347;BME280;49472;49.880;8.650;2023-02-19T11:31:14;100847.47;;;18.25;53.00
63347;BME280;49472;49.880;8.650;2023-02-19T11:34:12;100864.72;;;17.96;52.18
63347;BME280;49472;49.880;8.650;2023-02-19T11:37:08;100854.59;;;18.13;52.49
63347;BME280;49472;49.880;8.650;2023-02-19T11:39:34;100835.34;;;18.53;51.10
63347;BME280;49472;49.880;8.650;2023-02-19T11:50:18;100840.03;;;18.95;51.01
63347;BME280;49472;49.880;8.650;2023-02-19T12:04:05;100852.81;;;18.51;48.83
63347;BME280;49472;49.880;8.650;2023-02-19T12:15:34;100850.69;;;17.99;49.17
63347;BME280;49472;49.880;8.650;2023-02-19T12:18:21;100837.34;;;17.94;48.44
63347;BME280;49472;49.880;8.650;2023-02-19T12:21:04;100856.66;;;17.70;49.72
63347;BME280;49472;49.880;8.650;2023-02-19T12:32:25;100846.81;;;18.50;47.87
63347;BME280;49472;49.880;8.650;2023-02-19T12:35:06;100852.50;;;18.54;47.77
63347;BME280;49472;49.880;8.650;2023-02-19T12:40:24;100841.53;;;18.97;47.24
63347;BME280;49472;49.880;8.650;2023-02-19T12:43:19;100841.03;;;19.29;46.76
63347;BME280;49472;49.880;8.650;2023-02-19T12:45:46;100843.38;;;19.23;46.40
63347;BME280;49472;49.880;8.650;2023-02-19T12:50:47;100852.16;;;19.66;46.25
63347;BME280;49472;49.880;8.650;2023-02-19T12:55:59;100843.59;;;18.94;45.96
63347;BME280;49472;49.880;8.650;2023-02-19T13:00:56;100836.72;;;20.00;43.53
63347;BME280;49472;49.880;8.650;2023-02-19T13:06:04;100831.38;;;18.86;45.05
63347;BME280;49472;49.880;8.650;2023-02-19T13:08:47;100832.63;;;19.00;45.04
63347;BME280;49472;49.880;8.650;2023-02-19T13:11:20;100841.50;;;18.79;44.89
63347;BME280;49472;49.880;8.650;2023-02-19T13:13:54;100831.44;;;18.76;44.60
63347;BME280;49472;49.880;8.650;2023-02-19T13:16:21;100820.00;;;20.03;42.45
63347;BME280;49472;49.880;8.650;2023-02-19T13:18:49;100822.13;;;20.84;41.42
63347;BME280;49472;49.880;8.650;2023-02-19T13:21:19;100814.81;;;21.78;40.99
63347;BME280;49472;49.880;8.650;2023-02-19T13:24:07;100823.13;;;21.16;40.91
63347;BME280;49472;49.880;8.650;2023-02-19T13:29:30;100835.78;;;20.52;42.54
63347;BME280;49472;49.880;8.650;2023-02-19T13:32:09;100831.03;;;19.79;43.46
63347;BME280;49472;49.880;8.650;2023-02-19T13:37:21;100832.69;;;18.90;45.22
63347;BME280;49472;49.880;8.650;2023-02-19T13:39:50;100828.91;;;20.00;43.88
63347;BME280;49472;49.880;8.650;2023-02-19T13:42:27;100827.31;;;20.07;43.24
63347;BME280;49472;49.880;8.650;2023-02-19T13:44:55;100832.84;;;19.60;44.26
63347;BME280;49472;49.880;8.650;2023-02-19T13:50:23;100829.72;;;18.85;45.68
63347;BME280;49472;49.880;8.650;2023-02-19T13:52:50;100838.47;;;18.84;45.33
63347;BME280;49472;49.880;8.650;2023-02-19T14:00:59;100850.63;;;18.83;45.12
63347;BME280;49472;49.880;8.650;2023-02-19T14:03:52;100844.41;;;18.39;45.64
63347;BME280;49472;49.880;8.650;2023-02-19T14:06:19;100849.63;;;18.57;45.61
63347;BME280;49472;49.880;8.650;2023-02-19T14:08:54;100855.84;;;18.36;45.83
63347;BME280;49472;49.880;8.650;2023-02-19T14:14:27;100856.94;;;19.52;44.37
63347;BME280;49472;49.880;8.650;2023-02-19T14:30:26;100879.81;;;18.48;46.12
63347;BME280;49472;49.880;8.650;2023-02-19T14:32:53;100860.72;;;18.49;46.00
63347;BME280;49472;49.880;8.650;2023-02-19T14:35:19;100871.59;;;19.08;45.46
63347;BME280;49472;49.880;8.650;2023-02-19T14:37:46;100877.63;;;19.44;45.08
63347;BME280;49472;49.880;8.650;2023-02-19T14:40:19;100874.88;;;19.28;45.06
63347;BME280;49472;49.880;8.650;2023-02-19T14:42:46;100882.13;;;19.24;45.08
63347;BME280;49472;49.880;8.650;2023-02-19T14:45:13;100893.44;;;19.05;45.39
63347;BME280;49472;49.880;8.650;2023-02-19T14:47:40;100896.72;;;18.42;47.14
63347;BME280;49472;49.880;8.650;2023-02-19T14:50:16;100898.66;;;18.31;48.84
63347;BME280;49472;49.880;8.650;2023-02-19T14:52:47;100899.78;;;18.65;48.89
63347;BME280;49472;49.880;8.650;2023-02-19T14:55:16;100898.06;;;18.47;48.87
63347;BME280;49472;49.880;8.650;2023-02-19T14:57:45;100908.28;;;18.48;48.80
63347;BME280;49472;49.880;8.650;2023-02-19T15:00:27;100899.56;;;18.86;48.56
63347;BME280;49472;49.880;8.650;2023-02-19T15:02:54;100907.22;;;19.06;48.96